createdAt,value
2019-03-04T00:01:53.286Z,69.95
2019-03-04T00:04:19.604Z,70.05
2019-03-04T00:06:45.787Z,70.03
2019-03-04T00:09:12.026Z,70.07
2019-03-04T00:11:40.707Z,70.14
2019-03-04T00:14:07.620Z,70.24
2019-03-04T00:16:33.851Z,70.33
2019-03-04T00:19:00.019Z,70.30
2019-03-04T00:21:26.148Z,70.37
2019-03-04T00:23:52.356Z,70.45
2019-03-04T00:26:19.655Z,70.25
2019-03-04T00:28:45.717Z,70.20
2019-03-04T00:31:11.897Z,70.26
2019-03-04T00:33:38.022Z,70.25
2019-03-04T00:36:06.485Z,70.23
2019-03-04T00:38:32.654Z,70.04
2019-03-04T00:40:58.827Z,69.79
2019-03-04T00:43:24.997Z,69.47
2019-03-04T00:45:51.087Z,69.45
2019-03-04T00:48:18.360Z,69.13
2019-03-04T00:50:44.585Z,69.00
2019-03-04T00:53:10.783Z,68.94
2019-03-04T00:55:36.980Z,69.10
2019-03-04T00:58:03.243Z,69.00
2019-03-04T01:00:29.298Z,68.92
2019-03-04T01:02:55.429Z,68.91
2019-03-04T01:05:21.788Z,69.00
2019-03-04T01:07:48.022Z,69.18
2019-03-04T01:10:16.805Z,69.20
2019-03-04T01:12:45.783Z,69.45
2019-03-04T01:15:17.857Z,69.39
2019-03-04T01:17:44.614Z,69.48
2019-03-04T01:20:15.329Z,69.56
2019-03-04T01:22:41.718Z,69.56
2019-03-04T01:25:11.076Z,69.75
2019-03-04T01:27:37.335Z,69.67
2019-03-04T01:30:07.036Z,69.63
2019-03-04T01:32:33.192Z,69.57
2019-03-04T01:34:59.263Z,69.57
2019-03-04T01:37:25.454Z,69.55
2019-03-04T01:39:51.607Z,69.48
2019-03-04T01:42:19.747Z,69.48
2019-03-04T01:44:45.808Z,69.53
2019-03-04T01:47:11.916Z,69.48
2019-03-04T01:49:38.056Z,69.27
2019-03-04T01:52:04.124Z,69.00
2019-03-04T01:54:30.242Z,69.11
2019-03-04T01:56:56.411Z,69.19
2019-03-04T01:59:22.495Z,69.25
2019-03-04T02:01:48.692Z,69.25
2019-03-04T02:04:14.815Z,69.18
2019-03-04T02:06:42.711Z,69.04
2019-03-04T02:09:09.167Z,68.92
2019-03-04T02:11:35.435Z,68.47
2019-03-04T02:14:01.627Z,68.65
2019-03-04T02:16:28.358Z,68.74
2019-03-04T02:18:54.551Z,68.53
2019-03-04T02:21:20.851Z,68.39
2019-03-04T02:23:46.926Z,68.32
2019-03-04T02:26:14.816Z,68.18
2019-03-04T02:28:40.878Z,68.14
2019-03-04T02:31:07.155Z,67.87
2019-03-04T02:33:33.503Z,67.80
2019-03-04T02:35:59.740Z,67.39
2019-03-04T02:38:25.818Z,66.87
2019-03-04T02:40:51.997Z,66.93
2019-03-04T02:43:21.923Z,66.88
2019-03-04T02:45:48.327Z,67.08
2019-03-04T02:48:14.466Z,66.82
2019-03-04T02:50:40.552Z,66.92
2019-03-04T02:53:06.731Z,66.98
2019-03-04T02:55:32.842Z,67.18
2019-03-04T02:57:59.005Z,67.11
2019-03-04T03:00:25.094Z,67.13
2019-03-04T03:02:51.218Z,67.26
2019-03-04T03:05:17.310Z,67.42
2019-03-04T03:07:43.665Z,67.59
2019-03-04T03:10:11.756Z,67.66
2019-03-04T03:12:37.882Z,67.72
2019-03-04T03:15:06.560Z,67.93
2019-03-04T03:17:33.863Z,68.05
2019-03-04T03:20:00.589Z,68.24
2019-03-04T03:22:26.698Z,68.31
2019-03-04T03:24:52.789Z,68.49
2019-03-04T03:27:18.917Z,68.66
2019-03-04T03:29:45.031Z,68.50
2019-03-04T03:32:11.112Z,68.36
2019-03-04T03:34:37.479Z,68.04
2019-03-04T03:37:04.242Z,67.99
2019-03-04T03:39:30.398Z,68.00
2019-03-04T03:41:58.793Z,67.81
2019-03-04T03:44:25.005Z,67.57
2019-03-04T03:46:51.175Z,67.21
2019-03-04T03:49:17.256Z,67.04
2019-03-04T03:51:43.981Z,67.27
2019-03-04T03:54:10.109Z,66.81
2019-03-04T03:56:36.310Z,66.93
2019-03-04T03:59:02.786Z,66.61
2019-03-04T04:01:29.086Z,66.58
2019-03-04T04:03:55.825Z,66.23
2019-03-04T04:06:21.983Z,66.24
2019-03-04T04:08:48.149Z,65.84
2019-03-04T04:11:14.266Z,65.98
2019-03-04T04:13:41.465Z,65.92
2019-03-04T04:16:07.737Z,66.21
2019-03-04T04:18:34.248Z,66.03
2019-03-04T04:21:01.008Z,65.67
2019-03-04T04:23:27.946Z,65.85
2019-03-04T04:25:54.278Z,65.91
2019-03-04T04:28:20.472Z,65.63
2019-03-04T04:30:46.537Z,65.75
2019-03-04T04:33:12.685Z,65.79
2019-03-04T04:35:38.858Z,65.87
2019-03-04T04:38:05.016Z,65.93
2019-03-04T04:40:31.071Z,65.79
2019-03-04T04:42:57.230Z,65.83
2019-03-04T04:45:23.319Z,65.54
2019-03-04T04:47:49.517Z,64.91
2019-03-04T04:50:27.830Z,64.73
2019-03-04T04:52:54.019Z,64.92
2019-03-04T04:55:20.080Z,64.99
2019-03-04T04:57:46.286Z,64.75
2019-03-04T05:00:17.008Z,64.68
2019-03-04T05:02:43.248Z,64.29
2019-03-04T05:05:09.540Z,64.28
2019-03-04T05:07:35.683Z,63.70
2019-03-04T05:10:03.552Z,63.59
2019-03-04T05:12:32.440Z,63.67
2019-03-04T05:14:58.551Z,62.99
2019-03-04T05:17:24.806Z,63.17
2019-03-04T05:19:51.040Z,63.19
2019-03-04T05:22:17.399Z,62.40
2019-03-04T05:24:44.068Z,62.34
2019-03-04T05:27:10.475Z,62.24
2019-03-04T05:29:36.682Z,61.82
2019-03-04T05:32:02.966Z,62.06
2019-03-04T05:34:29.087Z,61.90
2019-03-04T05:36:56.760Z,61.90
2019-03-04T05:39:23.665Z,61.97
2019-03-04T05:41:50.610Z,62.16
2019-03-04T05:44:16.752Z,61.97
2019-03-04T05:46:42.979Z,61.88
2019-03-04T05:49:10.978Z,61.79
2019-03-04T05:51:37.545Z,61.50
2019-03-04T05:54:03.934Z,61.64
2019-03-04T05:56:30.163Z,61.23
2019-03-04T05:58:56.791Z,60.58
2019-03-04T06:01:28.751Z,60.34
2019-03-04T06:03:58.048Z,59.85
2019-03-04T06:06:44.500Z,60.68
2019-03-04T06:09:13.747Z,60.25
2019-03-04T06:11:40.126Z,60.22
2019-03-04T06:14:07.722Z,60.11
2019-03-04T06:16:35.591Z,60.19
2019-03-04T06:19:01.883Z,60.27
2019-03-04T06:21:28.162Z,60.07
2019-03-04T06:23:54.233Z,60.26
2019-03-04T06:26:20.501Z,60.32
2019-03-04T06:28:46.600Z,59.61
2019-03-04T06:31:12.780Z,58.98
2019-03-04T06:33:41.513Z,59.35
2019-03-04T06:36:07.885Z,59.55
2019-03-04T06:38:33.970Z,58.38
2019-03-04T06:41:00.136Z,58.18
2019-03-04T06:43:26.238Z,58.15
2019-03-04T06:45:55.008Z,57.99
2019-03-04T06:48:21.336Z,57.66
2019-03-04T06:50:52.087Z,57.98
2019-03-04T06:53:28.093Z,58.25
2019-03-04T06:56:13.223Z,57.61
2019-03-04T06:58:53.127Z,57.45
2019-03-04T07:01:23.180Z,57.65
2019-03-04T07:03:55.103Z,57.85
2019-03-04T07:06:21.307Z,58.17
2019-03-04T07:08:52.426Z,57.65
2019-03-04T07:11:18.601Z,57.88
2019-03-04T07:13:45.830Z,57.28
2019-03-04T07:16:12.126Z,58.20
2019-03-04T07:18:38.201Z,57.80
2019-03-04T07:21:04.423Z,57.55
2019-03-04T07:23:30.610Z,57.51
2019-03-04T07:25:57.499Z,57.13
2019-03-04T07:28:23.826Z,56.74
2019-03-04T07:30:54.397Z,56.58
2019-03-04T07:33:38.594Z,56.93
2019-03-04T07:36:04.867Z,56.25
2019-03-04T07:38:43.153Z,56.62
2019-03-04T07:41:10.414Z,56.60
2019-03-04T07:43:36.909Z,56.45
2019-03-04T07:46:03.303Z,56.63
2019-03-04T07:48:29.579Z,56.69
2019-03-04T07:50:59.477Z,56.29
2019-03-04T07:54:06.129Z,55.99
2019-03-04T07:56:43.666Z,56.37
2019-03-04T07:59:12.759Z,56.47
2019-03-04T08:01:39.062Z,56.43
2019-03-04T08:04:05.417Z,54.94
2019-03-04T08:06:31.762Z,55.60
2019-03-04T08:09:13.360Z,55.90
2019-03-04T08:12:03.142Z,54.98
2019-03-04T08:14:30.325Z,55.23
2019-03-04T08:17:00.073Z,55.20
2019-03-04T08:19:32.367Z,54.77
2019-03-04T08:22:09.795Z,55.27
2019-03-04T08:24:41.011Z,55.53
2019-03-04T08:27:18.779Z,55.56
2019-03-04T08:29:46.666Z,55.11
2019-03-04T08:32:18.231Z,54.27
2019-03-04T08:34:56.100Z,54.53
2019-03-04T08:37:22.453Z,53.65
2019-03-04T08:39:53.243Z,52.44
2019-03-04T08:43:06.554Z,52.16
2019-03-04T08:45:50.308Z,51.21
2019-03-04T08:48:32.920Z,50.97
2019-03-04T08:57:04.081Z,48.49
2019-03-04T09:03:02.899Z,47.41
2019-03-04T09:08:33.836Z,43.30
2019-03-04T09:11:09.777Z,43.76
2019-03-04T09:13:38.766Z,44.30
2019-03-04T09:16:07.033Z,43.61
2019-03-04T09:18:33.362Z,42.20
2019-03-04T09:20:59.599Z,41.57
2019-03-04T09:23:27.061Z,41.86
2019-03-04T09:26:04.677Z,41.67
2019-03-04T09:28:33.730Z,41.57
2019-03-04T09:30:59.971Z,41.92
2019-03-04T09:33:27.426Z,41.63
2019-03-04T09:35:53.891Z,41.48
2019-03-04T09:38:20.121Z,41.98
2019-03-04T09:40:46.356Z,41.59
2019-03-04T09:43:12.903Z,41.27
2019-03-04T09:45:47.587Z,41.12
2019-03-04T09:48:13.777Z,41.30
2019-03-04T09:50:53.801Z,39.99
2019-03-04T09:53:19.952Z,38.86
2019-03-04T09:55:49.103Z,38.76
2019-03-04T09:58:15.570Z,39.08
2019-03-04T10:00:54.932Z,39.48
2019-03-04T10:03:30.996Z,38.34
2019-03-04T10:06:30.927Z,39.01
2019-03-04T10:09:06.969Z,38.77
2019-03-04T10:12:00.711Z,39.68
2019-03-04T10:14:50.461Z,40.05
2019-03-04T10:17:35.724Z,39.16
2019-03-04T10:20:17.410Z,40.02
2019-03-04T10:23:21.075Z,40.85
2019-03-04T10:26:03.128Z,41.88
2019-03-04T10:28:48.535Z,41.29
2019-03-04T10:31:53.600Z,41.00
2019-03-04T10:34:40.425Z,40.77
2019-03-04T10:37:22.961Z,40.44
2019-03-04T10:40:11.160Z,41.42
2019-03-04T10:42:46.869Z,41.27
2019-03-04T10:45:31.650Z,41.23
2019-03-04T10:47:58.047Z,41.37
2019-03-04T10:50:24.335Z,40.88
2019-03-04T10:52:50.657Z,40.14
2019-03-04T10:55:18.235Z,37.92
2019-03-04T10:57:45.596Z,35.99
2019-03-04T11:00:18.314Z,35.86
2019-03-04T11:02:44.931Z,37.13
2019-03-04T11:05:11.531Z,36.02
2019-03-04T11:07:37.809Z,34.45
2019-03-04T11:10:07.766Z,32.98
2019-03-04T11:12:34.053Z,32.47
2019-03-04T11:15:00.345Z,31.39
2019-03-04T11:17:26.530Z,30.65
2019-03-04T11:19:54.189Z,29.14
2019-03-04T11:22:21.086Z,30.95
2019-03-04T11:24:49.447Z,30.90
2019-03-04T11:27:17.153Z,33.01
2019-03-04T11:29:45.099Z,33.01
2019-03-04T11:32:11.393Z,33.50
2019-03-04T11:34:37.586Z,34.19
2019-03-04T11:37:04.001Z,34.32
2019-03-04T11:39:44.101Z,32.59
2019-03-04T11:42:10.634Z,34.07
2019-03-04T11:44:40.399Z,32.40
2019-03-04T11:47:07.806Z,33.81
2019-03-04T11:49:35.477Z,34.57
2019-03-04T11:52:01.994Z,33.58
2019-03-04T11:54:29.130Z,31.60
2019-03-04T11:56:56.575Z,31.17
2019-03-04T11:59:22.863Z,29.62
2019-03-04T12:01:49.479Z,29.01
2019-03-04T12:04:15.798Z,30.19
2019-03-04T12:06:44.744Z,29.93
2019-03-04T12:09:13.525Z,32.03
2019-03-04T12:11:40.434Z,33.76
2019-03-04T12:14:06.681Z,34.73
2019-03-04T12:16:36.163Z,34.77
2019-03-04T12:19:02.529Z,34.75
2019-03-04T12:21:28.850Z,33.67
2019-03-04T12:23:55.181Z,33.76
2019-03-04T12:26:21.704Z,34.00
2019-03-04T12:28:52.933Z,34.12
2019-03-04T12:31:19.204Z,35.20
2019-03-04T12:33:45.662Z,35.20
2019-03-04T12:36:12.011Z,35.22
2019-03-04T12:38:38.325Z,35.99
2019-03-04T12:41:04.730Z,36.87
2019-03-04T12:43:31.018Z,37.82
2019-03-04T12:45:57.323Z,39.56
2019-03-04T12:48:23.642Z,40.58
2019-03-04T12:50:49.959Z,41.24
2019-03-04T12:53:16.395Z,41.35
2019-03-04T12:55:42.786Z,41.17
2019-03-04T12:58:09.191Z,41.12
2019-03-04T13:00:36.636Z,41.36
2019-03-04T13:03:03.144Z,41.77
2019-03-04T13:05:29.593Z,42.62
2019-03-04T13:07:56.531Z,42.32
2019-03-04T13:10:25.852Z,42.88
2019-03-04T13:12:52.232Z,42.83
2019-03-04T13:15:29.217Z,43.39
2019-03-04T13:17:56.111Z,43.82
2019-03-04T13:20:26.774Z,43.88
2019-03-04T13:22:53.116Z,44.05
2019-03-04T13:25:19.328Z,43.53
2019-03-04T13:27:45.670Z,44.13
2019-03-04T13:30:24.989Z,43.93
2019-03-04T13:32:52.355Z,43.63
2019-03-04T13:35:30.589Z,43.21
2019-03-04T13:37:56.876Z,43.39
2019-03-04T13:40:23.293Z,43.20
2019-03-04T13:42:49.781Z,42.39
2019-03-04T13:45:16.489Z,42.62
2019-03-04T13:47:42.627Z,43.00
2019-03-04T13:50:24.091Z,42.68
2019-03-04T13:52:50.195Z,43.23
2019-03-04T13:55:16.523Z,42.76
2019-03-04T13:57:42.850Z,42.26
2019-03-04T14:00:17.914Z,42.27
2019-03-04T14:02:44.142Z,42.11
2019-03-04T14:05:12.832Z,42.27
2019-03-04T14:07:39.715Z,42.27
2019-03-04T14:10:15.671Z,42.47
2019-03-04T14:12:41.880Z,42.58
2019-03-04T14:15:14.820Z,42.90
2019-03-04T14:17:41.029Z,42.65
2019-03-04T14:20:09.653Z,42.82
2019-03-04T14:22:40.319Z,43.62
2019-03-04T14:25:09.833Z,43.50
2019-03-04T14:27:36.611Z,43.83
2019-03-04T14:30:09.299Z,43.57
2019-03-04T14:32:35.504Z,43.76
2019-03-04T14:35:02.069Z,43.65
2019-03-04T14:37:28.530Z,44.04
2019-03-04T14:39:54.948Z,44.45
2019-03-04T14:42:21.883Z,44.28
2019-03-04T14:44:49.202Z,44.28
2019-03-04T14:47:16.306Z,44.67
2019-03-04T14:49:45.083Z,44.62
2019-03-04T14:52:11.154Z,44.24
2019-03-04T14:54:37.374Z,44.44
2019-03-04T14:57:04.544Z,44.06
2019-03-04T14:59:31.036Z,44.54
2019-03-04T15:01:57.166Z,44.33
2019-03-04T15:04:23.306Z,44.41
2019-03-04T15:06:50.997Z,44.45
2019-03-04T15:09:17.227Z,44.78
2019-03-04T15:11:43.482Z,44.95
2019-03-04T15:14:11.677Z,44.56
2019-03-04T15:16:37.811Z,44.32
2019-03-04T15:19:04.040Z,44.68
2019-03-04T15:21:30.352Z,44.71
2019-03-04T15:23:56.595Z,44.37
2019-03-04T15:26:22.784Z,43.97
2019-03-04T15:28:48.957Z,43.98
2019-03-04T15:31:15.286Z,43.29
2019-03-04T15:33:42.091Z,43.39
2019-03-04T15:36:08.948Z,43.63
2019-03-04T15:38:35.318Z,43.40
2019-03-04T15:41:01.807Z,43.11
2019-03-04T15:43:28.051Z,43.90
2019-03-04T15:45:57.049Z,43.92
2019-03-04T15:48:28.412Z,43.87
2019-03-04T15:50:55.724Z,44.35
2019-03-04T15:53:23.101Z,44.46
2019-03-04T15:55:49.461Z,44.54
2019-03-04T15:58:18.036Z,45.10
2019-03-04T16:00:44.348Z,47.33
2019-03-04T16:03:10.792Z,48.92
2019-03-04T16:05:37.023Z,52.35
2019-03-04T16:08:07.629Z,58.16
2019-03-04T16:10:35.950Z,63.79
2019-03-04T16:13:02.518Z,68.09
2019-03-04T16:15:29.356Z,69.88
2019-03-04T16:17:55.731Z,69.95
2019-03-04T16:20:22.235Z,70.17
2019-03-04T16:22:50.497Z,71.09
2019-03-04T16:25:17.862Z,71.18
2019-03-04T16:27:44.189Z,71.40
2019-03-04T16:30:17.251Z,70.81
2019-03-04T16:32:43.459Z,70.43
2019-03-04T16:35:09.639Z,70.57
2019-03-04T16:37:36.337Z,69.74
2019-03-04T16:40:11.669Z,69.14
2019-03-04T16:42:38.110Z,68.86
2019-03-04T16:45:06.945Z,68.73
2019-03-04T16:47:33.301Z,68.81
2019-03-04T16:49:59.515Z,68.38
2019-03-04T16:52:26.849Z,67.67
2019-03-04T16:54:59.983Z,68.46
2019-03-04T16:57:28.880Z,67.79
2019-03-04T16:59:55.209Z,68.33
2019-03-04T17:02:23.872Z,67.84
2019-03-04T17:04:50.090Z,69.67
2019-03-04T17:07:20.670Z,73.63
2019-03-04T17:09:48.892Z,75.33
2019-03-04T17:12:15.553Z,76.61
2019-03-04T17:14:42.071Z,76.91
2019-03-04T17:17:09.784Z,77.64
2019-03-04T17:19:36.088Z,77.06
2019-03-04T17:22:02.340Z,77.10
2019-03-04T17:24:28.658Z,77.02
2019-03-04T17:26:54.885Z,77.13
2019-03-04T17:29:21.101Z,76.59
2019-03-04T17:31:47.543Z,77.16
2019-03-04T17:34:13.858Z,76.23
2019-03-04T17:36:40.387Z,75.94
2019-03-04T17:39:07.087Z,75.38
2019-03-04T17:41:36.389Z,76.13
2019-03-04T17:44:02.909Z,76.37
2019-03-04T17:46:30.296Z,76.36
2019-03-04T17:48:56.439Z,76.22
2019-03-04T17:51:23.272Z,75.61
2019-03-04T17:53:49.468Z,75.39
2019-03-04T17:56:16.531Z,74.99
2019-03-04T17:58:42.682Z,74.99
2019-03-04T18:01:09.093Z,74.78
2019-03-04T18:03:35.463Z,74.49
2019-03-04T18:06:01.633Z,74.41
2019-03-04T18:08:28.453Z,75.04
2019-03-04T18:10:54.503Z,74.42
2019-03-04T18:13:20.764Z,74.61
2019-03-04T18:15:46.934Z,74.98
2019-03-04T18:18:14.144Z,76.38
2019-03-04T18:20:44.828Z,79.17
2019-03-04T18:23:11.062Z,81.40
2019-03-04T18:25:44.060Z,81.21
2019-03-04T18:28:21.808Z,81.77
2019-03-04T18:31:12.612Z,82.25
2019-03-04T18:33:52.168Z,82.73
2019-03-04T18:36:39.348Z,83.63
2019-03-04T18:39:21.515Z,83.87
2019-03-04T18:42:03.742Z,84.14
2019-03-04T18:44:46.123Z,85.10
2019-03-04T18:47:31.118Z,84.82
2019-03-04T18:49:57.346Z,84.77
2019-03-04T18:52:23.944Z,84.73
2019-03-04T18:54:50.187Z,84.87
2019-03-04T18:57:16.344Z,84.51
2019-03-04T18:59:44.382Z,84.66
2019-03-04T19:02:10.683Z,84.51
2019-03-04T19:04:37.362Z,84.54
2019-03-04T19:07:08.222Z,84.90
2019-03-04T19:09:39.275Z,85.08
2019-03-04T19:12:03.714Z,85.32
2019-03-04T19:14:48.534Z,85.59
2019-03-04T19:17:42.935Z,85.30
2019-03-04T19:19:48.933Z,85.63
2019-03-04T19:22:16.957Z,85.90
2019-03-04T19:24:43.488Z,85.87
2019-03-04T19:27:12.287Z,85.49
2019-03-04T19:29:43.429Z,86.17
2019-03-04T19:32:08.978Z,86.39
2019-03-04T19:34:47.867Z,86.21
2019-03-04T19:37:09.397Z,86.08
2019-03-04T19:39:35.984Z,86.01
2019-03-04T19:42:26.780Z,85.66
2019-03-04T19:44:32.739Z,85.88
2019-03-04T19:46:59.319Z,85.30
2019-03-04T19:49:25.621Z,85.35
2019-03-04T19:51:53.637Z,85.35
2019-03-04T19:54:20.057Z,84.98
2019-03-04T19:56:48.484Z,84.76
2019-03-04T19:59:23.944Z,85.07
2019-03-04T20:01:51.447Z,85.17
2019-03-04T20:04:17.845Z,85.19
2019-03-04T20:06:44.562Z,85.05
2019-03-04T20:09:11.280Z,85.22
2019-03-04T20:11:40.707Z,85.07
2019-03-04T20:14:08.298Z,85.62
2019-03-04T20:16:34.773Z,85.60
2019-03-04T20:19:01.148Z,85.92
2019-03-04T20:21:28.605Z,86.12
2019-03-04T20:23:54.897Z,86.10
2019-03-04T20:26:22.917Z,86.14
2019-03-04T20:28:52.958Z,85.79
2019-03-04T20:31:19.410Z,86.15
2019-03-04T20:33:45.740Z,86.44
2019-03-04T20:36:12.262Z,86.68
2019-03-04T20:38:42.162Z,86.78
2019-03-04T20:41:08.529Z,86.56
2019-03-04T20:43:36.024Z,85.60
2019-03-04T20:46:03.854Z,85.85
2019-03-04T20:48:31.098Z,86.13
2019-03-04T20:50:58.627Z,86.41
2019-03-04T20:53:26.853Z,85.87
2019-03-04T20:55:53.212Z,84.35
2019-03-04T20:58:19.359Z,85.30
2019-03-04T21:00:45.672Z,85.55
2019-03-04T21:03:12.351Z,82.80
2019-03-04T21:05:38.758Z,83.50
2019-03-04T21:08:05.910Z,84.32
2019-03-04T21:10:32.295Z,85.00
2019-03-04T21:13:06.344Z,85.16
2019-03-04T21:15:35.831Z,84.42
2019-03-04T21:18:02.343Z,84.55
2019-03-04T21:20:31.774Z,85.33
2019-03-04T21:23:00.402Z,84.89
2019-03-04T21:25:43.276Z,84.93
2019-03-04T21:28:25.335Z,84.16
2019-03-04T21:30:59.851Z,84.01
2019-03-04T21:33:53.764Z,84.39
2019-03-04T21:36:40.669Z,84.50
2019-03-04T21:39:10.275Z,83.83
2019-03-04T21:41:40.976Z,83.96
2019-03-04T21:44:16.721Z,83.27
2019-03-04T21:46:55.124Z,83.75
2019-03-04T21:49:22.187Z,82.75
2019-03-04T21:52:19.786Z,83.53
2019-03-04T21:57:27.375Z,83.32
2019-03-04T21:59:53.970Z,83.40
2019-03-04T22:02:33.209Z,83.49
2019-03-04T22:05:06.199Z,83.30
2019-03-04T22:07:34.277Z,83.21
2019-03-04T22:10:01.739Z,82.85
2019-03-04T22:12:28.454Z,82.71
2019-03-04T22:14:55.062Z,82.59
2019-03-04T22:17:21.374Z,82.73
2019-03-04T22:19:47.491Z,82.72
2019-03-04T22:22:13.638Z,82.50
2019-03-04T22:24:39.762Z,81.74
2019-03-04T22:27:05.978Z,81.58
2019-03-04T22:29:34.908Z,82.06
2019-03-04T22:32:01.649Z,81.99
2019-03-04T22:34:27.753Z,81.71
2019-03-04T22:36:53.901Z,81.44
2019-03-04T22:39:20.143Z,81.17
2019-03-04T22:41:46.913Z,81.30
2019-03-04T22:44:14.033Z,80.77
2019-03-04T22:46:41.622Z,80.78
2019-03-04T22:49:07.858Z,81.08
2019-03-04T22:51:34.051Z,80.16
2019-03-04T22:54:00.143Z,80.34
2019-03-04T22:56:26.364Z,80.28
2019-03-04T22:58:52.563Z,80.22
2019-03-04T23:01:37.219Z,79.71
2019-03-04T23:04:07.659Z,79.82
2019-03-04T23:06:46.475Z,79.67
2019-03-04T23:09:16.593Z,79.49
2019-03-04T23:11:58.510Z,79.23
2019-03-04T23:14:28.065Z,79.49
2019-03-04T23:16:54.276Z,79.20
2019-03-04T23:19:20.580Z,79.25
2019-03-04T23:21:46.649Z,79.29
2019-03-04T23:24:12.978Z,79.12
2019-03-04T23:26:39.160Z,78.62
2019-03-04T23:29:05.756Z,79.01
2019-03-04T23:31:31.858Z,78.56
2019-03-04T23:33:58.125Z,78.68
2019-03-04T23:36:24.222Z,78.42
2019-03-04T23:38:50.509Z,78.52
2019-03-04T23:41:16.686Z,78.53
2019-03-04T23:43:42.902Z,78.11
2019-03-04T23:46:09.037Z,78.66
2019-03-04T23:48:35.191Z,78.63
2019-03-04T23:51:01.405Z,78.54
2019-03-04T23:53:31.127Z,77.92
2019-03-04T23:55:57.439Z,77.86
2019-03-04T23:58:23.836Z,77.97
